Nearby METAR Reports

 

KIAG - Niagara Falls, New York, USA
Distance from station: W 12mi, 20km
Updated: 02/22/2017 1:53pm
Haze, Overcast
Haze, Overcast
 Wind from WSW
Wind: WSW 14 mph , 22 km/h
Temperature: 59°F , 15°C
Dew Point: 50°F , 10°C
Humidity: 72%
Barometer: 1009.8 hPa
Summary: Haze
Clouds: Overcast
Visibility: 6 miles , 10 km
Cloud details: Overcast 1700 ft
2017/02/22 18:53 KIAG 221853Z 24012KT 6SM HZ OVC017 15/10 A2982 RMK AO2 SLP104 T01500100
KBUF - Buffalo/Cheektow, New York, USA
Distance from station: S 13mi, 21km
Updated: 02/22/2017 1:54pm
Overcast
Overcast
 Wind from SW
Wind: SW 10 mph , 17 km/h
Temperature: 55°F , 13°C
Dew Point: 48°F , 9°C
Humidity: 77%
Barometer: 1010.2 hPa
Clouds: Overcast
Visibility: 7 miles , 11 km
Cloud details: Overcast 2200 ft
2017/02/22 18:54 KBUF 221854Z 23009KT 7SM OVC022 13/09 A2983 RMK AO2 SLP105 T01330089
 
KROC - Rochester, New York, USA
Distance from station: E 51mi, 82km
Updated: 02/22/2017 1:54pm
Mostly cloudy
Mostly cloudy
 Wind from calm
Wind: Calm
Temperature: 63°F , 17°C
Dew Point: 45°F , 7°C
Humidity: 52%
Barometer: 1010.2 hPa
Clouds: Mostly cloudy
Visibility: 10 miles , 16 km
Cloud details: Partly cloudy 4700 ft
Mostly cloudy 9000 ft
Mostly cloudy 20000 ft
2017/02/22 18:54 KROC 221854Z 00000KT 10SM SCT047 BKN090 BKN200 17/07 A2983 RMK AO2 SLP104 T01720067
CYSN - St. Catharines A, Ontario, Canada
Distance from station: WNW 25mi, 40km
Updated: 02/22/2017 2:00pm
Mist, Overcast
Mist, Overcast
 Wind from varies
Wind: varies 2 mph , 4 km/h
Temperature: 48°F , 9°C
Dew Point: 43°F , 6°C
Humidity: 82%
Barometer: 1009.8 hPa
Summary: Mist
Clouds: Overcast
Visibility: 4 miles , 6 km
Cloud details: Partly cloudy 1600 ft
Mostly cloudy 5200 ft
Overcast 7400 ft
2017/02/22 19:00 CYSN 221900Z VRB02KT 4SM BR SCT016 BKN052 OVC074 09/06 A2982 RMK SC4SC2AC2 SLP101
 
KOLE - Olean, New York, USA
Distance from station: SSE 63mi, 102km
Updated: 02/22/2017 2:35pm
Rain, Overcast
Rain, Overcast
 Wind from SW
Wind: SW 6 mph , 9 km/h
Temperature: 50°F , 10°C
Wind Chill: 48°F , 9°C
Dew Point: 50°F , 10°C
Humidity: 100%
Barometer: 1011.2 hPa
Summary: Rain
Clouds: Overcast
Visibility: 5 miles , 8 km
Cloud details: Partly cloudy 800 ft
Mostly cloudy 1500 ft
Overcast 5500 ft
2017/02/22 19:35 KOLE 221935Z AUTO 22005KT 5SM RA SCT008 BKN015 OVC055 10/10 A2986 RMK AO2
KJHW - Jamestown, New York, USA
Distance from station: SSW 74mi, 119km
Updated: 02/22/2017 2:35pm
Overcast
Overcast
 Wind from S
Wind: S 5 mph , 7 km/h
Temperature: 52°F , 11°C
Dew Point: 48°F , 9°C
Humidity: 88%
Barometer: 1010.8 hPa
Clouds: Overcast
Visibility: 8 miles , 13 km
Cloud details: Overcast 400 ft
2017/02/22 19:35 KJHW 221935Z AUTO 19004KT 8SM OVC004 11/09 A2985 RMK AO1
 
CWWZ - Port Weller (mar, Ontario, Canada
Distance from station: WNW 28mi, 45km
Updated: 02/22/2017 2:00pm

 Wind from WSW
Wind: WSW 2 mph , 4 km/h
Temperature: 41°F , 5°C
Dew Point: 39°F , 4°C
Humidity: 93%
2017/02/22 19:00 CWWZ 221900Z AUTO 25002KT 05/04 RMK AO1 SLP104 T00500042 58016
CWPC - Port Colborne(Au, Ontario, Canada
Distance from station: WSW 33mi, 53km
Updated: 02/22/2017 2:00pm

 Wind from W
Wind: W 5 mph , 7 km/h
Temperature: 41°F , 5°C
Wind Chill: 38°F , 3°C
Dew Point: 37°F , 3°C
Humidity: 87%
2017/02/22 19:00 CWPC 221900Z AUTO 26004KT 05/03 RMK AO1 SLP109 T00530034 58012
 
CXVN - Vineland (au8), Ontario, Canada
Distance from station: W 36mi, 58km
Updated: 02/22/2017 2:00pm

 Wind from NNW
Wind: NNW 3 mph , 6 km/h
Temperature: 41°F , 5°C
Dew Point: 39°F , 4°C
Humidity: 93%
2017/02/22 19:00 CXVN 221900Z AUTO 34003KT 05/04 RMK AO1 SOG 01 8014 SLP097 T00490035
CYTZ - Toronto Il Vor, Ontario, Canada
Distance from station: NW 50mi, 81km
Updated: 02/22/2017 2:34pm
Mist, Overcast
Mist, Overcast
 Wind from E
Wind: E 10 mph , 17 km/h
Temperature: 41°F , 5°C
Wind Chill: 35°F , 2°C
Dew Point: 41°F , 5°C
Humidity: 100%
Barometer: 1009.5 hPa
Summary: Mist
Clouds: Overcast
Visibility: 3/4 mile , 5 km
Cloud details: Overcast 200 ft
2017/02/22 19:34 CYTZ 221934Z AUTO 08009KT 3/4SM R08/3000V4500FT/ BR VV002 05/05 A2981 RMK SLP098
 
CXTO - Toronto City, Ontario, Canada
Distance from station: NW 52mi, 84km
Updated: 02/22/2017 2:00pm

 
Temperature: 46°F , 8°C
Dew Point: 43°F , 6°C
Humidity: 87%
2017/02/22 19:00 CXTO 221900Z AUTO 08/06 RMK AO1 SLP098 T00780055 58021
KDKK - Dunkirk, New York, USA
Distance from station: SW 52mi, 84km
Updated: 02/22/2017 1:53pm
Overcast
Overcast
 Wind from calm
Wind: Calm
Temperature: 52°F , 11°C
Dew Point: 46°F , 8°C
Humidity: 82%
Barometer: 1010.8 hPa
Clouds: Overcast
Visibility: 7 miles , 11 km
Cloud details: Overcast 2200 ft
2017/02/22 18:53 KDKK 221853Z AUTO 00000KT 7SM OVC022 11/08 A2985 RMK AO2 SLP110 T01110078
 
CYOO - Oshawa, Ontario, Canada
Distance from station: N 56mi, 90km
Updated: 02/22/2017 2:38pm
Overcast
Overcast
 Wind from ESE
Wind: ESE 6 mph , 9 km/h
Temperature: 45°F , 7°C
Wind Chill: 42°F , 6°C
Dew Point: 45°F , 7°C
Humidity: 100%
Barometer: 1009.5 hPa
Clouds: Overcast
Visibility: 9 miles , 14 km
Cloud details: Partly cloudy 700 ft
Overcast 3600 ft
2017/02/22 19:38 CYOO 221938Z AUTO 11005KT 9SM SCT007 OVC036 07/07 A2981 RMK SLP100
CWWB - Burlington Piers, Ontario, Canada
Distance from station: WNW 56mi, 91km
Updated: 02/22/2017 2:00pm

 Wind from E
Wind: E 6 mph , 9 km/h
Temperature: 39°F , 4°C
Wind Chill: 35°F , 2°C
Dew Point: 39°F , 4°C
Humidity: 100%
2017/02/22 19:00 CWWB 221900Z AUTO 08005KT 04/04 RMK AO1 SLP100 T00380035 58020
 
CYYZ - Toronto/Pearson, Ontario, Canada
Distance from station: NW 60mi, 96km
Updated: 02/22/2017 2:00pm
Mist, Overcast
Mist, Overcast
 Wind from SSE
Wind: SSE 6 mph , 9 km/h
Temperature: 45°F , 7°C
Wind Chill: 42°F , 6°C
Dew Point: 45°F , 7°C
Humidity: 100%
Barometer: 1009.5 hPa
Summary: Mist
Clouds: Overcast
Visibility: 5 miles , 8 km
Cloud details: Partly cloudy 500 ft
Overcast 700 ft
2017/02/22 19:00 CYYZ 221900Z 15005KT 5SM BR SCT005 OVC007 07/07 A2981 RMK SF4SF4 SLP101
CYKZ - Toronto Buttonvi, Ontario, Canada
Distance from station: NW 62mi, 99km
Updated: 02/22/2017 2:00pm
Mist, Overcast
Mist, Overcast
 Wind from SSE
Wind: SSE 7 mph , 11 km/h
Temperature: 43°F , 6°C
Wind Chill: 39°F , 4°C
Dew Point: 43°F , 6°C
Humidity: 100%
Barometer: 1009.5 hPa
Summary: Mist
Clouds: Overcast
Visibility: 5 miles , 8 km
Cloud details: Mostly cloudy 300 ft
Mostly cloudy 800 ft
Overcast 10000 ft
2017/02/22 19:00 CYKZ 221900Z 15006KT 5SM BR BKN003 BKN008 OVC100 06/06 A2981 RMK ST6SC1AS1 VIS N 2 SLP102
 
CXHM - Hamilton Rbg Cs, Ontario, Canada
Distance from station: W 62mi, 100km
Updated: 02/22/2017 2:00pm

 Wind from SE
Wind: SE 3 mph , 6 km/h
Temperature: 45°F , 7°C
Dew Point: 45°F , 7°C
Humidity: 100%
2017/02/22 19:00 CXHM 221900Z AUTO 13003KT 07/07 RMK AO1 SLP094 T00650070 58019
KDSV - Dansville, New York, USA
Distance from station: SE 62mi, 100km
Updated: 02/22/2017 1:54pm
Overcast
Overcast
 Wind from WNW
Wind: WNW 8 mph , 13 km/h
Temperature: 66°F , 19°C
Dew Point: 46°F , 8°C
Humidity: 49%
Barometer: 1009.8 hPa
Clouds: Overcast
Visibility: 10 miles , 16 km
Cloud details: Mostly cloudy 4800 ft
Overcast 10000 ft
2017/02/22 18:54 KDSV 221854Z AUTO 30007KT 10SM BKN048 OVC100 19/08 A2982 RMK AO2 SLP106 T01890078
 
CYHM - Hamilton Airport, Ontario, Canada
Distance from station: W 63mi, 101km
Updated: 02/22/2017 2:22pm
Overcast
Overcast
 Wind from S
Wind: S 5 mph , 7 km/h
Temperature: 57°F , 14°C
Dew Point: 50°F , 10°C
Humidity: 77%
Barometer: 1009.1 hPa
Clouds: Overcast
Visibility: 7 miles , 11 km
Cloud details: Mostly cloudy 1400 ft
Overcast 5500 ft
2017/02/22 19:22 CYHM 221922Z 17004KT 110V210 7SM BKN014 OVC055 14/10 A2980 RMK CF6SC2 SLP095 DENSITY ALT 900FT
CWNC - Cobourg (mars), Ontario, Canada
Distance from station: NNE 63mi, 102km
Updated: 02/22/2017 2:00pm

 Wind from E
Wind: E 5 mph , 7 km/h
Temperature: 39°F , 4°C
Wind Chill: 35°F , 2°C
Dew Point: 37°F , 3°C
Humidity: 93%
2017/02/22 19:00 CWNC 221900Z AUTO 10004KT 04/03 RMK AO1 SOG 00 6026 SLP099 T00430032